Time;durP1;ratioP1;P1;durP2;ratioP2;P2;SDS_P1;SDS_P2;PMS_P1;PMS_P2;Temp;Humidity;BMP_temperature;BMP_pressure;BME280_temperature;BME280_humidity;BME280_pressure;Samples;Min_cycle;Max_cycle;Signal;HPM_P1;HPM_P2
2022/04/18 00:00:06;;;;;;;4.07;2.20;;;;;;;;;;515903;28;1704;-85
2022/04/18 00:00:22;;;;;;;3.58;2.10;;;;;;;;;;516738;28;1633;-85
2022/04/18 00:00:37;;;;;;;3.30;2.10;;;;;;;;;;517276;28;1455;-85
2022/04/18 00:00:52;;;;;;;2.90;2.00;;;;;;;;;;517091;28;1490;-85
2022/04/18 00:01:08;;;;;;;3.00;1.95;;;;;;;;;;517154;28;1490;-85
2022/04/18 00:01:23;;;;;;;3.37;2.00;;;;;;;;;;516325;28;1966;-84
2022/04/18 00:01:38;;;;;;;3.10;2.00;;;;;;;;;;514743;28;1579;-85
2022/04/18 00:01:54;;;;;;;2.97;2.10;;;;;;;;;;514847;28;1586;-86
2022/04/18 00:02:09;;;;;;;2.90;2.13;;;;;;;;;;516648;28;1503;-88
2022/04/18 00:02:25;;;;;;;3.00;2.10;;;;;;;;;;518150;28;1723;-86
2022/04/18 00:02:40;;;;;;;3.33;2.10;;;;;;;;;;518909;28;1450;-88
2022/04/18 00:02:55;;;;;;;3.13;2.17;;;;;;;;;;516367;28;1562;-86
2022/04/18 00:03:11;;;;;;;2.75;2.00;;;;;;;;;;516828;28;1421;-86
2022/04/18 00:03:26;;;;;;;2.60;1.90;;;;;;;;;;516620;28;1615;-86
2022/04/18 00:03:41;;;;;;;3.10;2.07;;;;;;;;;;514516;28;1476;-86
2022/04/18 00:03:57;;;;;;;3.78;2.00;;;;;;;;;;514511;28;1464;-87
2022/04/18 00:04:12;;;;;;;3.50;2.00;;;;;;;;;;514427;28;1464;-87
2022/04/18 00:04:28;;;;;;;3.05;2.00;;;;;;;;;;513911;28;1482;-85
2022/04/18 00:04:43;;;;;;;3.37;1.90;;;;;;;;;;514618;28;1706;-85
2022/04/18 00:04:59;;;;;;;3.00;1.90;;;;;;;;;;514618;28;1656;-84
2022/04/18 00:05:14;;;;;;;3.50;2.00;;;;;;;;;;514867;28;1465;-87
2022/04/18 00:05:31;;;;;;;3.63;2.00;;;;;;;;;;512151;28;1539;-86
2022/04/18 00:05:46;;;;;;;3.22;1.98;;;;;;;;;;512732;28;1420;-86
2022/04/18 00:06:02;;;;;;;3.22;2.03;;;;;;;;;;512931;28;1861;-86
2022/04/18 00:06:18;;;;;;;2.50;1.92;;;;;;;;;;512687;28;1631;-86
2022/04/18 00:06:35;;;;;;;2.97;1.90;;;;;;;;;;513020;28;1747;-86
2022/04/18 00:06:50;;;;;;;3.45;1.90;;;;;;;;;;514192;28;1715;-85
2022/04/18 00:07:06;;;;;;;2.97;1.80;;;;;;;;;;514819;28;1420;-85
2022/04/18 00:07:21;;;;;;;2.93;1.80;;;;;;;;;;515445;28;1732;-86
2022/04/18 00:07:37;;;;;;;3.03;1.83;;;;;;;;;;517036;28;1396;-86
2022/04/18 00:07:52;;;;;;;2.63;1.80;;;;;;;;;;515894;28;1441;-85
2022/04/18 00:08:08;;;;;;;2.80;1.85;;;;;;;;;;515370;28;1476;-86
2022/04/18 00:08:24;;;;;;;2.80;1.98;;;;;;;;;;514963;28;1479;-86
2022/04/18 00:08:39;;;;;;;2.67;2.10;;;;;;;;;;515087;28;1495;-85
2022/04/18 00:08:55;;;;;;;2.88;2.10;;;;;;;;;;515124;28;1468;-85
2022/04/18 00:09:11;;;;;;;2.80;1.98;;;;;;;;;;515460;28;1424;-85
2022/04/18 00:09:27;;;;;;;2.33;1.80;;;;;;;;;;516439;28;1605;-85
2022/04/18 00:09:42;;;;;;;2.50;1.80;;;;;;;;;;516365;28;1435;-87
2022/04/18 00:09:58;;;;;;;2.45;1.80;;;;;;;;;;515472;28;1561;-85
2022/04/18 00:10:13;;;;;;;2.77;2.00;;;;;;;;;;515161;28;1457;-86
2022/04/18 00:10:29;;;;;;;2.90;2.03;;;;;;;;;;515254;28;1455;-85
2022/04/18 00:10:44;;;;;;;2.70;2.00;;;;;;;;;;514843;28;1707;-85
2022/04/18 00:10:59;;;;;;;2.70;1.92;;;;;;;;;;514691;28;1616;-85
2022/04/18 00:11:15;;;;;;;3.00;2.00;;;;;;;;;;514665;28;1570;-86
2022/04/18 00:11:31;;;;;;;4.15;2.20;;;;;;;;;;513574;28;1630;-86
2022/04/18 00:11:46;;;;;;;3.80;2.00;;;;;;;;;;515312;28;1520;-86
2022/04/18 00:12:03;;;;;;;3.30;1.93;;;;;;;;;;514732;28;1390;-84
2022/04/18 00:12:19;;;;;;;3.25;1.90;;;;;;;;;;514731;28;1575;-85
2022/04/18 00:12:34;;;;;;;3.22;1.80;;;;;;;;;;514706;28;1452;-86
2022/04/18 00:12:50;;;;;;;3.87;1.97;;;;;;;;;;513460;28;1843;-85
2022/04/18 00:13:05;;;;;;;3.42;2.00;;;;;;;;;;514548;28;1353;-86
2022/04/18 00:13:21;;;;;;;3.13;2.00;;;;;;;;;;513044;28;1744;-85
2022/04/18 00:13:37;;;;;;;3.50;2.03;;;;;;;;;;512937;28;1382;-86
2022/04/18 00:13:52;;;;;;;3.33;1.88;;;;;;;;;;513298;28;1456;-85
2022/04/18 00:14:09;;;;;;;2.97;1.90;;;;;;;;;;511181;29;1422;-85
2022/04/18 00:14:25;;;;;;;3.42;2.00;;;;;;;;;;510962;29;1469;-86
2022/04/18 00:14:40;;;;;;;3.17;1.90;;;;;;;;;;509276;29;1576;-86
2022/04/18 00:14:56;;;;;;;3.20;1.90;;;;;;;;;;511363;28;1422;-86
2022/04/18 00:15:11;;;;;;;3.67;2.10;;;;;;;;;;512144;28;1925;-86
2022/04/18 00:15:27;;;;;;;3.50;2.10;;;;;;;;;;510495;28;1413;-85
2022/04/18 00:15:42;;;;;;;3.53;2.00;;;;;;;;;;510402;28;1707;-86
2022/04/18 00:15:57;;;;;;;3.83;1.93;;;;;;;;;;510863;28;1477;-85
2022/04/18 00:16:13;;;;;;;3.80;1.98;;;;;;;;;;510257;28;1529;-86
2022/04/18 00:16:28;;;;;;;3.30;2.10;;;;;;;;;;510784;28;1355;-85
2022/04/18 00:16:44;;;;;;;3.03;2.00;;;;;;;;;;510459;28;1680;-85
2022/04/18 00:17:00;;;;;;;2.78;1.90;;;;;;;;;;510618;28;1461;-85
2022/04/18 00:17:16;;;;;;;3.13;1.90;;;;;;;;;;510808;28;1716;-85
2022/04/18 00:17:31;;;;;;;3.90;2.00;;;;;;;;;;512630;28;1378;-85
2022/04/18 00:17:47;;;;;;;3.30;2.00;;;;;;;;;;510232;29;1788;-85
2022/04/18 00:18:02;;;;;;;3.88;2.03;;;;;;;;;;510533;28;1438;-86
2022/04/18 00:18:17;;;;;;;3.73;2.00;;;;;;;;;;512304;28;1541;-86
2022/04/18 00:18:33;;;;;;;2.55;1.80;;;;;;;;;;512481;28;1500;-86
2022/04/18 00:18:48;;;;;;;2.73;1.80;;;;;;;;;;512716;28;1559;-85
2022/04/18 00:19:04;;;;;;;2.70;1.80;;;;;;;;;;513264;28;1468;-85
2022/04/18 00:19:19;;;;;;;2.97;1.90;;;;;;;;;;512950;28;1858;-86
2022/04/18 00:19:37;;;;;;;3.70;2.00;;;;;;;;;;513456;28;1543;-86
2022/04/18 00:19:54;;;;;;;4.55;2.10;;;;;;;;;;514935;28;1440;-85
2022/04/18 00:20:10;;;;;;;4.00;2.08;;;;;;;;;;515733;28;1541;-85
2022/04/18 00:20:25;;;;;;;4.05;2.05;;;;;;;;;;516569;28;1504;-85
2022/04/18 00:20:42;;;;;;;4.10;2.13;;;;;;;;;;515368;28;1444;-84
2022/04/18 00:20:57;;;;;;;3.47;2.20;;;;;;;;;;516095;28;1562;-86
2022/04/18 00:21:13;;;;;;;2.80;2.00;;;;;;;;;;516705;28;1450;-85
2022/04/18 00:21:28;;;;;;;2.73;1.90;;;;;;;;;;516624;28;1895;-85
2022/04/18 00:21:44;;;;;;;2.87;1.90;;;;;;;;;;517427;28;1353;-85
2022/04/18 00:21:59;;;;;;;2.95;2.03;;;;;;;;;;517504;28;1749;-86
2022/04/18 00:22:14;;;;;;;3.53;2.10;;;;;;;;;;515328;28;1376;-85
2022/04/18 00:22:30;;;;;;;3.60;2.10;;;;;;;;;;514897;28;1548;-85
2022/04/18 00:22:45;;;;;;;3.53;2.20;;;;;;;;;;515518;28;1471;-85
2022/04/18 00:23:01;;;;;;;3.63;2.10;;;;;;;;;;515674;28;1549;-85
2022/04/18 00:23:16;;;;;;;3.87;1.90;;;;;;;;;;517423;28;1547;-84
2022/04/18 00:23:32;;;;;;;3.55;2.00;;;;;;;;;;517430;28;1520;-85
2022/04/18 00:23:47;;;;;;;2.70;2.00;;;;;;;;;;515249;28;1448;-87
2022/04/18 00:24:03;;;;;;;2.70;2.00;;;;;;;;;;515404;28;1670;-85
2022/04/18 00:24:20;;;;;;;2.97;2.05;;;;;;;;;;517269;28;1495;-86
2022/04/18 00:24:36;;;;;;;3.33;2.00;;;;;;;;;;517105;28;1415;-85
2022/04/18 00:24:52;;;;;;;3.55;1.90;;;;;;;;;;514724;28;1519;-85
2022/04/18 00:25:07;;;;;;;3.13;1.90;;;;;;;;;;514911;28;1604;-85
2022/04/18 00:25:23;;;;;;;3.67;2.10;;;;;;;;;;515017;28;1626;-85
2022/04/18 00:25:38;;;;;;;3.90;2.08;;;;;;;;;;512922;28;1442;-85
2022/04/18 00:25:54;;;;;;;4.17;2.13;;;;;;;;;;514700;28;1912;-85
2022/04/18 00:26:09;;;;;;;4.37;2.17;;;;;;;;;;514202;28;1558;-86
2022/04/18 00:26:25;;;;;;;3.58;1.98;;;;;;;;;;512982;28;1487;-86
2022/04/18 00:26:42;;;;;;;2.93;2.00;;;;;;;;;;513751;28;1355;-85
2022/04/18 00:26:58;;;;;;;3.03;2.20;;;;;;;;;;514763;28;1675;-86
2022/04/18 00:27:13;;;;;;;3.10;2.20;;;;;;;;;;513122;28;1501;-85
2022/04/18 00:27:28;;;;;;;3.58;2.08;;;;;;;;;;513294;28;1590;-86
2022/04/18 00:27:44;;;;;;;4.13;2.00;;;;;;;;;;514910;28;1639;-85
2022/04/18 00:27:59;;;;;;;3.35;1.90;;;;;;;;;;515195;28;1476;-87
2022/04/18 00:28:15;;;;;;;2.43;1.80;;;;;;;;;;515027;28;1567;-85
2022/04/18 00:28:31;;;;;;;3.15;1.95;;;;;;;;;;514917;28;2142;-86
2022/04/18 00:28:46;;;;;;;2.90;1.90;;;;;;;;;;514318;28;1618;-85
2022/04/18 00:29:02;;;;;;;3.23;1.90;;;;;;;;;;515529;28;1563;-84
2022/04/18 00:29:17;;;;;;;3.30;2.00;;;;;;;;;;515074;28;1606;-84
2022/04/18 00:29:33;;;;;;;4.05;2.00;;;;;;;;;;515504;28;1445;-84
2022/04/18 00:29:49;;;;;;;3.97;2.07;;;;;;;;;;515139;28;1594;-84
2022/04/18 00:30:05;;;;;;;3.92;2.10;;;;;;;;;;515244;28;1405;-87
2022/04/18 00:30:20;;;;;;;4.38;2.15;;;;;;;;;;514741;28;1715;-84
2022/04/18 00:30:35;;;;;;;4.37;2.10;;;;;;;;;;514981;28;1460;-86
2022/04/18 00:30:51;;;;;;;4.27;2.00;;;;;;;;;;515225;28;1583;-85
2022/04/18 00:31:07;;;;;;;3.80;2.10;;;;;;;;;;515530;28;1857;-86
2022/04/18 00:31:23;;;;;;;3.75;2.30;;;;;;;;;;517434;28;1424;-85
2022/04/18 00:31:38;;;;;;;4.00;2.10;;;;;;;;;;516655;28;1626;-85
2022/04/18 00:31:54;;;;;;;4.20;1.90;;;;;;;;;;516588;28;1821;-86
2022/04/18 00:32:09;;;;;;;3.80;2.00;;;;;;;;;;515045;28;1542;-85
2022/04/18 00:32:25;;;;;;;2.78;2.00;;;;;;;;;;512845;28;1457;-86
2022/04/18 00:32:40;;;;;;;2.67;2.00;;;;;;;;;;513103;28;1608;-85
2022/04/18 00:32:56;;;;;;;2.38;1.80;;;;;;;;;;515220;28;1724;-85
2022/04/18 00:33:12;;;;;;;2.40;1.70;;;;;;;;;;514777;28;1532;-87
2022/04/18 00:33:27;;;;;;;2.88;1.80;;;;;;;;;;515336;28;1436;-85
2022/04/18 00:33:43;;;;;;;2.83;1.87;;;;;;;;;;516699;28;1597;-85
2022/04/18 00:33:59;;;;;;;2.83;2.00;;;;;;;;;;514700;28;1544;-85
2022/04/18 00:34:14;;;;;;;2.92;1.98;;;;;;;;;;516751;28;1475;-84
2022/04/18 00:34:32;;;;;;;2.87;2.00;;;;;;;;;;517391;28;1467;-86
2022/04/18 00:34:47;;;;;;;3.30;2.08;;;;;;;;;;516703;28;1391;-84
2022/04/18 00:35:06;;;;;;;3.33;1.90;;;;;;;;;;513303;28;1574;-85
2022/04/18 00:35:21;;;;;;;3.00;1.80;;;;;;;;;;513658;28;1437;-85
2022/04/18 00:35:36;;;;;;;2.53;1.87;;;;;;;;;;510572;28;2667;-84
2022/04/18 00:35:52;;;;;;;3.53;1.97;;;;;;;;;;511757;28;1452;-85
2022/04/18 00:36:08;;;;;;;4.15;2.20;;;;;;;;;;511300;28;1466;-85
2022/04/18 00:36:23;;;;;;;3.30;2.10;;;;;;;;;;511455;28;1532;-84
2022/04/18 00:36:39;;;;;;;3.40;2.00;;;;;;;;;;511395;28;1610;-86
2022/04/18 00:36:55;;;;;;;3.13;2.00;;;;;;;;;;510144;29;1564;-85
2022/04/18 00:37:10;;;;;;;2.55;1.90;;;;;;;;;;508964;29;1410;-85
2022/04/18 00:37:26;;;;;;;2.88;1.90;;;;;;;;;;509673;28;1490;-86
2022/04/18 00:37:42;;;;;;;3.50;2.10;;;;;;;;;;511831;28;1558;-85
2022/04/18 00:37:58;;;;;;;3.00;2.00;;;;;;;;;;513688;28;1918;-85
2022/04/18 00:38:13;;;;;;;2.83;2.00;;;;;;;;;;515118;28;1558;-84
2022/04/18 00:38:29;;;;;;;3.30;2.00;;;;;;;;;;515122;28;1638;-85
2022/04/18 00:38:44;;;;;;;3.40;2.00;;;;;;;;;;515029;28;1508;-85
2022/04/18 00:39:00;;;;;;;3.17;1.90;;;;;;;;;;512948;28;1795;-85
2022/04/18 00:39:16;;;;;;;2.33;1.80;;;;;;;;;;513031;28;1508;-85
2022/04/18 00:39:31;;;;;;;2.22;1.92;;;;;;;;;;511214;28;1451;-84
2022/04/18 00:39:47;;;;;;;3.20;2.17;;;;;;;;;;511168;29;1562;-85
2022/04/18 00:40:03;;;;;;;3.35;1.98;;;;;;;;;;511132;29;1613;-85
2022/04/18 00:40:19;;;;;;;3.90;1.90;;;;;;;;;;509387;29;1572;-86
2022/04/18 00:40:34;;;;;;;3.60;1.80;;;;;;;;;;510314;29;1354;-85
2022/04/18 00:40:50;;;;;;;2.13;1.70;;;;;;;;;;510495;29;1514;-85
2022/04/18 00:41:06;;;;;;;2.20;1.70;;;;;;;;;;511568;28;1501;-85
2022/04/18 00:41:22;;;;;;;2.55;1.67;;;;;;;;;;511899;28;1899;-85
2022/04/18 00:41:38;;;;;;;3.03;1.80;;;;;;;;;;512504;28;1917;-84
2022/04/18 00:41:54;;;;;;;4.05;1.80;;;;;;;;;;513707;28;1620;-87
2022/04/18 00:42:09;;;;;;;3.67;1.80;;;;;;;;;;512359;28;1489;-85
2022/04/18 00:42:25;;;;;;;2.45;1.65;;;;;;;;;;514445;28;1704;-85
2022/04/18 00:42:44;;;;;;;2.97;1.70;;;;;;;;;;512193;28;1507;-86
2022/04/18 00:43:06;;;;;;;4.38;1.80;;;;;;;;;;512773;28;1540;-85
2022/04/18 00:43:46;;;;;;;3.95;1.90;;;;;;;;;;514307;28;1463;-85
2022/04/18 00:44:02;;;;;;;3.25;1.80;;;;;;;;;;513953;28;1488;-86
2022/04/18 00:44:18;;;;;;;3.08;1.90;;;;;;;;;;514116;28;2061;-86
2022/04/18 00:44:33;;;;;;;2.67;1.70;;;;;;;;;;515707;28;1679;-84
2022/04/18 00:44:48;;;;;;;2.85;1.80;;;;;;;;;;515389;28;1435;-86
2022/04/18 00:45:04;;;;;;;2.93;1.80;;;;;;;;;;514941;28;1499;-86
2022/04/18 00:45:20;;;;;;;3.53;1.90;;;;;;;;;;513179;28;1482;-85
2022/04/18 00:45:35;;;;;;;4.20;2.00;;;;;;;;;;513320;28;1534;-86
2022/04/18 00:45:51;;;;;;;3.70;2.08;;;;;;;;;;513570;28;1398;-84
2022/04/18 00:46:07;;;;;;;3.22;2.00;;;;;;;;;;511310;28;1488;-85
2022/04/18 00:46:23;;;;;;;3.83;1.98;;;;;;;;;;511169;29;1473;-84
2022/04/18 00:46:38;;;;;;;3.58;1.90;;;;;;;;;;511306;29;1469;-85
2022/04/18 00:46:55;;;;;;;2.80;1.90;;;;;;;;;;512387;28;2216;-86
2022/04/18 00:47:11;;;;;;;3.33;1.98;;;;;;;;;;512804;28;1377;-86
2022/04/18 00:47:26;;;;;;;3.70;1.90;;;;;;;;;;512533;28;1767;-84
2022/04/18 00:47:42;;;;;;;3.27;1.90;;;;;;;;;;513591;28;1967;-86
2022/04/18 00:47:57;;;;;;;3.50;1.90;;;;;;;;;;513974;28;1905;-85
2022/04/18 00:48:12;;;;;;;3.30;1.90;;;;;;;;;;511603;28;1450;-85
2022/04/18 00:48:28;;;;;;;2.90;1.93;;;;;;;;;;510100;29;1740;-85
2022/04/18 00:48:44;;;;;;;2.73;1.90;;;;;;;;;;511095;28;1442;-85
2022/04/18 00:48:59;;;;;;;2.85;2.00;;;;;;;;;;512616;28;1740;-85
2022/04/18 00:49:15;;;;;;;2.40;1.90;;;;;;;;;;515000;28;1409;-86
2022/04/18 00:49:30;;;;;;;2.15;1.83;;;;;;;;;;514851;28;1671;-85
2022/04/18 00:49:46;;;;;;;2.40;1.93;;;;;;;;;;514990;28;1361;-85
2022/04/18 00:50:03;;;;;;;2.37;1.90;;;;;;;;;;515307;28;1428;-85
2022/04/18 00:50:18;;;;;;;2.50;1.90;;;;;;;;;;517334;28;1574;-86
2022/04/18 00:50:35;;;;;;;3.25;2.00;;;;;;;;;;518811;28;1383;-86
2022/04/18 00:50:51;;;;;;;3.97;2.20;;;;;;;;;;517298;28;1385;-85
2022/04/18 00:51:10;;;;;;;3.75;2.00;;;;;;;;;;515015;28;1805;-87
2022/04/18 00:51:26;;;;;;;3.35;1.90;;;;;;;;;;512740;28;1459;-86
2022/04/18 00:51:42;;;;;;;3.63;2.10;;;;;;;;;;510176;28;1402;-85
2022/04/18 00:51:57;;;;;;;3.63;2.17;;;;;;;;;;509169;29;1970;-85
2022/04/18 00:52:13;;;;;;;3.03;2.05;;;;;;;;;;509613;29;1367;-86
2022/04/18 00:52:30;;;;;;;2.43;1.90;;;;;;;;;;510796;28;1564;-87
2022/04/18 00:52:47;;;;;;;2.55;1.80;;;;;;;;;;512240;28;1505;-86
2022/04/18 00:53:04;;;;;;;3.05;2.00;;;;;;;;;;511730;28;1752;-85
2022/04/18 00:53:19;;;;;;;3.42;2.00;;;;;;;;;;512329;28;1458;-85
2022/04/18 00:53:36;;;;;;;3.27;1.80;;;;;;;;;;513033;28;1561;-86
2022/04/18 00:53:56;;;;;;;2.30;1.80;;;;;;;;;;513355;28;1537;-84
2022/04/18 00:54:12;;;;;;;3.08;1.98;;;;;;;;;;514995;28;1421;-86
2022/04/18 00:54:28;;;;;;;2.47;1.90;;;;;;;;;;515091;28;1629;-85
2022/04/18 00:54:44;;;;;;;3.10;1.80;;;;;;;;;;516401;28;1653;-86
2022/04/18 00:55:02;;;;;;;4.68;2.00;;;;;;;;;;516686;28;1448;-85
2022/04/18 00:55:19;;;;;;;4.60;2.00;;;;;;;;;;518602;28;1490;-84
2022/04/18 00:55:35;;;;;;;4.25;1.80;;;;;;;;;;518868;28;1672;-86
2022/04/18 00:55:51;;;;;;;4.20;2.00;;;;;;;;;;518814;28;1710;-86
2022/04/18 00:56:08;;;;;;;3.33;2.20;;;;;;;;;;517037;28;1428;-85
2022/04/18 00:56:26;;;;;;;2.97;2.13;;;;;;;;;;517203;28;1720;-84
2022/04/18 00:56:41;;;;;;;2.53;1.90;;;;;;;;;;515059;28;1579;-86
2022/04/18 00:56:57;;;;;;;3.23;1.97;;;;;;;;;;514030;28;1668;-85
2022/04/18 00:57:12;;;;;;;2.85;1.77;;;;;;;;;;515355;28;1717;-85
2022/04/18 00:57:28;;;;;;;2.08;1.70;;;;;;;;;;512969;28;1675;-85
2022/04/18 00:57:45;;;;;;;2.90;1.90;;;;;;;;;;512477;28;1501;-86
2022/04/18 00:58:00;;;;;;;2.95;1.88;;;;;;;;;;513348;28;1398;-86
2022/04/18 00:58:16;;;;;;;2.90;1.90;;;;;;;;;;509344;28;1517;-85
2022/04/18 00:58:32;;;;;;;3.40;1.90;;;;;;;;;;511462;28;1643;-85
2022/04/18 00:58:49;;;;;;;3.60;1.90;;;;;;;;;;512428;28;1469;-85
2022/04/18 00:59:04;;;;;;;3.42;1.83;;;;;;;;;;510948;29;1537;-85
2022/04/18 00:59:21;;;;;;;3.20;1.83;;;;;;;;;;511882;28;1431;-85
2022/04/18 00:59:37;;;;;;;2.90;1.90;;;;;;;;;;513581;28;1720;-86
2022/04/18 00:59:53;;;;;;;3.45;2.00;;;;;;;;;;514830;28;1508;-85
2022/04/18 01:00:08;;;;;;;3.73;2.00;;;;;;;;;;515710;28;1437;-85
2022/04/18 01:00:24;;;;;;;3.40;1.92;;;;;;;;;;517924;28;1594;-85
2022/04/18 01:00:39;;;;;;;2.97;1.87;;;;;;;;;;518538;28;1375;-86
2022/04/18 01:00:55;;;;;;;3.40;1.80;;;;;;;;;;516672;28;1554;-85
2022/04/18 01:01:11;;;;;;;3.38;1.75;;;;;;;;;;514985;28;1520;-85
2022/04/18 01:01:26;;;;;;;2.73;1.87;;;;;;;;;;514986;28;1969;-85
2022/04/18 01:01:41;;;;;;;2.50;1.88;;;;;;;;;;515367;28;1481;-85
2022/04/18 01:01:57;;;;;;;2.43;1.70;;;;;;;;;;514981;28;1650;-86
2022/04/18 01:02:14;;;;;;;3.00;1.70;;;;;;;;;;514861;28;1690;-84
2022/04/18 01:02:29;;;;;;;3.28;1.90;;;;;;;;;;514475;28;1847;-86
2022/04/18 01:02:45;;;;;;;2.88;1.92;;;;;;;;;;514835;28;1757;-85
2022/04/18 01:03:00;;;;;;;2.83;1.77;;;;;;;;;;517188;28;1427;-85
2022/04/18 01:03:16;;;;;;;3.85;1.90;;;;;;;;;;516527;28;1622;-86
2022/04/18 01:03:32;;;;;;;3.00;1.90;;;;;;;;;;514772;28;1428;-85
2022/04/18 01:03:47;;;;;;;3.00;1.80;;;;;;;;;;514897;28;1602;-84
2022/04/18 01:04:04;;;;;;;3.97;2.00;;;;;;;;;;514718;28;1449;-86
2022/04/18 01:04:19;;;;;;;3.83;2.00;;;;;;;;;;515470;28;1499;-85
2022/04/18 01:04:35;;;;;;;3.25;1.80;;;;;;;;;;517326;28;1562;-85
2022/04/18 01:04:51;;;;;;;2.80;1.83;;;;;;;;;;516702;28;1574;-84
2022/04/18 01:05:09;;;;;;;3.45;2.10;;;;;;;;;;517039;28;1886;-84
2022/04/18 01:05:24;;;;;;;3.17;2.08;;;;;;;;;;517772;28;1371;-87
2022/04/18 01:05:40;;;;;;;2.93;2.00;;;;;;;;;;519130;28;1457;-85
2022/04/18 01:05:55;;;;;;;2.97;2.00;;;;;;;;;;517953;28;1733;-86
2022/04/18 01:06:12;;;;;;;2.77;1.90;;;;;;;;;;515089;28;1536;-85
2022/04/18 01:06:28;;;;;;;3.00;1.90;;;;;;;;;;514004;28;1508;-85
2022/04/18 01:06:43;;;;;;;3.50;1.80;;;;;;;;;;514581;28;1672;-86
2022/04/18 01:07:02;;;;;;;3.27;1.90;;;;;;;;;;515624;28;1460;-85
2022/04/18 01:07:18;;;;;;;2.60;1.95;;;;;;;;;;516367;28;1527;-85
2022/04/18 01:07:34;;;;;;;2.67;1.90;;;;;;;;;;515674;28;1448;-85
2022/04/18 01:07:50;;;;;;;2.78;1.80;;;;;;;;;;515510;28;1594;-84
2022/04/18 01:08:07;;;;;;;2.90;1.83;;;;;;;;;;517059;28;1459;-86
2022/04/18 01:08:24;;;;;;;3.35;2.00;;;;;;;;;;514914;28;1401;-86
2022/04/18 01:08:42;;;;;;;3.47;2.00;;;;;;;;;;514938;28;1567;-84
2022/04/18 01:08:57;;;;;;;3.20;2.00;;;;;;;;;;514892;28;1618;-84
2022/04/18 01:09:13;;;;;;;2.60;1.85;;;;;;;;;;514946;28;1506;-85
2022/04/18 01:09:28;;;;;;;3.10;1.90;;;;;;;;;;512975;28;1445;-85
2022/04/18 01:09:44;;;;;;;3.20;1.97;;;;;;;;;;511330;28;1440;-87
2022/04/18 01:10:01;;;;;;;2.95;2.00;;;;;;;;;;513091;28;1621;-85
2022/04/18 01:10:16;;;;;;;2.70;1.75;;;;;;;;;;511889;28;1802;-84
2022/04/18 01:10:32;;;;;;;2.93;1.77;;;;;;;;;;514213;28;1347;-86
2022/04/18 01:10:47;;;;;;;3.45;1.88;;;;;;;;;;512954;28;1651;-86
2022/04/18 01:11:06;;;;;;;3.63;1.87;;;;;;;;;;515129;28;1585;-85
2022/04/18 01:11:22;;;;;;;2.58;1.90;;;;;;;;;;514546;28;1575;-85
2022/04/18 01:11:39;;;;;;;2.47;1.88;;;;;;;;;;512929;28;1544;-85
2022/04/18 01:11:54;;;;;;;3.08;1.92;;;;;;;;;;510796;28;1576;-84
2022/04/18 01:12:09;;;;;;;2.97;1.90;;;;;;;;;;509271;29;1412;-85
2022/04/18 01:12:25;;;;;;;2.47;1.80;;;;;;;;;;508765;29;1439;-85
2022/04/18 01:12:41;;;;;;;2.50;1.92;;;;;;;;;;508869;29;1621;-85
2022/04/18 01:12:57;;;;;;;2.60;2.00;;;;;;;;;;508285;29;1580;-84
2022/04/18 01:13:12;;;;;;;3.30;1.90;;;;;;;;;;508484;29;1687;-85
2022/04/18 01:13:28;;;;;;;3.57;1.97;;;;;;;;;;510704;29;1573;-86
2022/04/18 01:13:47;;;;;;;2.88;1.90;;;;;;;;;;513116;28;1829;-86
2022/04/18 01:14:02;;;;;;;3.35;1.88;;;;;;;;;;514892;28;1476;-85
2022/04/18 01:14:18;;;;;;;3.15;1.90;;;;;;;;;;514604;28;1566;-85
2022/04/18 01:14:33;;;;;;;3.67;1.90;;;;;;;;;;512004;28;1457;-86
2022/04/18 01:14:49;;;;;;;3.60;1.90;;;;;;;;;;511481;28;1564;-85
2022/04/18 01:15:05;;;;;;;3.67;1.80;;;;;;;;;;511049;28;1443;-85
2022/04/18 01:15:21;;;;;;;3.92;1.95;;;;;;;;;;512452;28;1413;-84
2022/04/18 01:15:36;;;;;;;3.35;2.03;;;;;;;;;;513088;28;1422;-84
2022/04/18 01:15:55;;;;;;;2.90;1.90;;;;;;;;;;513326;28;1620;-85
2022/04/18 01:16:11;;;;;;;3.13;1.77;;;;;;;;;;515797;28;1508;-84
2022/04/18 01:16:27;;;;;;;3.92;1.83;;;;;;;;;;515393;28;1381;-85
2022/04/18 01:16:43;;;;;;;2.78;1.70;;;;;;;;;;515711;28;1467;-85
2022/04/18 01:16:58;;;;;;;2.80;1.60;;;;;;;;;;515253;28;1571;-85
2022/04/18 01:17:15;;;;;;;3.40;1.80;;;;;;;;;;515337;28;1383;-85
2022/04/18 01:17:30;;;;;;;2.70;1.90;;;;;;;;;;513396;28;1716;-85
2022/04/18 01:17:45;;;;;;;2.60;1.80;;;;;;;;;;513817;28;1402;-85
2022/04/18 01:18:01;;;;;;;2.83;1.80;;;;;;;;;;511906;28;1492;-84
2022/04/18 01:18:16;;;;;;;2.70;1.70;;;;;;;;;;511666;28;1477;-85
2022/04/18 01:18:32;;;;;;;2.90;1.80;;;;;;;;;;512999;28;1738;-85
2022/04/18 01:18:48;;;;;;;3.10;1.93;;;;;;;;;;514679;28;1472;-87
2022/04/18 01:19:04;;;;;;;2.78;1.75;;;;;;;;;;514684;28;1730;-86
2022/04/18 01:19:19;;;;;;;2.90;1.80;;;;;;;;;;514570;28;1641;-85
2022/04/18 01:19:34;;;;;;;3.20;1.90;;;;;;;;;;515020;28;1667;-84
2022/04/18 01:19:51;;;;;;;2.63;1.75;;;;;;;;;;513505;28;2086;-86
2022/04/18 01:20:07;;;;;;;2.28;1.80;;;;;;;;;;515121;28;1612;-85
2022/04/18 01:20:24;;;;;;;2.03;1.75;;;;;;;;;;512607;28;1477;-85
2022/04/18 01:20:43;;;;;;;2.03;1.70;;;;;;;;;;511969;28;1944;-84
2022/04/18 01:20:58;;;;;;;2.63;1.75;;;;;;;;;;510333;28;1460;-85
2022/04/18 01:21:17;;;;;;;3.00;1.80;;;;;;;;;;510743;28;1517;-85
2022/04/18 01:21:32;;;;;;;2.70;1.95;;;;;;;;;;510291;28;1493;-85
2022/04/18 01:21:48;;;;;;;2.27;1.80;;;;;;;;;;512324;28;1424;-86
2022/04/18 01:22:03;;;;;;;2.53;1.80;;;;;;;;;;512587;28;1555;-84
2022/04/18 01:22:19;;;;;;;3.17;2.10;;;;;;;;;;512131;28;1436;-85
2022/04/18 01:22:36;;;;;;;3.15;2.10;;;;;;;;;;511251;28;1568;-86
2022/04/18 01:22:52;;;;;;;2.92;2.00;;;;;;;;;;511532;28;1481;-86
2022/04/18 01:23:08;;;;;;;3.25;1.98;;;;;;;;;;512906;28;1455;-85
2022/04/18 01:23:24;;;;;;;2.80;1.77;;;;;;;;;;513329;28;1522;-85
2022/04/18 01:23:39;;;;;;;2.90;1.80;;;;;;;;;;514724;28;1508;-84
2022/04/18 01:23:57;;;;;;;4.07;1.90;;;;;;;;;;515126;28;1586;-86
2022/04/18 01:29:01;;;;;;;2.55;1.90;;;;;;;;;;516784;28;1461;-84
2022/04/18 01:29:16;;;;;;;2.33;1.80;;;;;;;;;;514516;28;1680;-86
2022/04/18 01:29:32;;;;;;;2.57;1.80;;;;;;;;;;514941;28;1468;-86
2022/04/18 01:29:47;;;;;;;3.72;1.85;;;;;;;;;;514114;28;1420;-86
2022/04/18 01:30:04;;;;;;;4.07;1.90;;;;;;;;;;514671;28;1841;-85
2022/04/18 01:30:19;;;;;;;2.80;1.90;;;;;;;;;;514671;28;1616;-87
2022/04/18 01:30:35;;;;;;;2.53;1.88;;;;;;;;;;514760;28;1435;-86
2022/04/18 01:30:51;;;;;;;2.63;1.80;;;;;;;;;;514941;28;1477;-84
2022/04/18 01:31:06;;;;;;;2.42;1.90;;;;;;;;;;512822;28;1918;-85
2022/04/18 01:31:22;;;;;;;3.13;1.90;;;;;;;;;;513300;28;1926;-85
2022/04/18 01:31:39;;;;;;;3.60;1.90;;;;;;;;;;513550;28;1651;-84
2022/04/18 01:31:55;;;;;;;2.97;1.98;;;;;;;;;;514442;28;1435;-85
2022/04/18 01:32:10;;;;;;;2.88;2.00;;;;;;;;;;512538;28;1655;-87
2022/04/18 01:32:25;;;;;;;2.77;1.90;;;;;;;;;;513356;28;1486;-85
2022/04/18 01:32:41;;;;;;;2.88;1.80;;;;;;;;;;512178;28;1585;-84
2022/04/18 01:32:56;;;;;;;2.93;1.80;;;;;;;;;;512377;28;1564;-86
2022/04/18 01:33:12;;;;;;;2.70;1.90;;;;;;;;;;512589;28;1520;-85
2022/04/18 01:33:27;;;;;;;2.85;1.95;;;;;;;;;;513501;28;1460;-85
2022/04/18 01:33:43;;;;;;;3.10;1.77;;;;;;;;;;513490;28;1560;-84
2022/04/18 01:34:01;;;;;;;3.30;1.80;;;;;;;;;;514235;28;1659;-86
2022/04/18 01:34:16;;;;;;;3.28;1.83;;;;;;;;;;513599;28;1461;-86
2022/04/18 01:34:31;;;;;;;4.00;1.87;;;;;;;;;;513740;28;1438;-85
2022/04/18 01:34:47;;;;;;;3.97;1.90;;;;;;;;;;512784;28;1390;-85
2022/04/18 01:35:03;;;;;;;3.20;2.00;;;;;;;;;;512613;28;1484;-85
2022/04/18 01:35:18;;;;;;;2.97;1.92;;;;;;;;;;513098;28;1430;-86
2022/04/18 01:35:36;;;;;;;2.33;1.85;;;;;;;;;;511658;28;1442;-85
2022/04/18 01:35:51;;;;;;;2.53;1.90;;;;;;;;;;510602;29;1489;-84
2022/04/18 01:36:07;;;;;;;3.43;1.90;;;;;;;;;;511052;28;1679;-85
2022/04/18 01:36:27;;;;;;;3.85;1.80;;;;;;;;;;511372;28;1733;-84
2022/04/18 01:36:42;;;;;;;3.25;1.80;;;;;;;;;;512701;28;1440;-86
2022/04/18 01:36:57;;;;;;;4.03;2.00;;;;;;;;;;513817;28;1445;-85
2022/04/18 01:37:13;;;;;;;3.83;1.98;;;;;;;;;;513932;28;1622;-85
2022/04/18 01:37:29;;;;;;;2.50;1.70;;;;;;;;;;514847;28;1662;-85
2022/04/18 01:37:45;;;;;;;2.60;1.80;;;;;;;;;;515730;28;1575;-85
2022/04/18 01:38:00;;;;;;;2.80;1.93;;;;;;;;;;514693;28;1516;-85
2022/04/18 01:38:15;;;;;;;2.83;2.00;;;;;;;;;;512600;28;2563;-85
2022/04/18 01:38:31;;;;;;;2.80;1.88;;;;;;;;;;512797;28;1616;-85
2022/04/18 01:38:46;;;;;;;2.40;1.73;;;;;;;;;;512596;28;1663;-85
2022/04/18 01:39:02;;;;;;;2.97;1.90;;;;;;;;;;512894;28;1853;-85
2022/04/18 01:39:17;;;;;;;3.13;2.00;;;;;;;;;;512561;28;1576;-85
2022/04/18 01:39:34;;;;;;;3.00;2.00;;;;;;;;;;512889;28;1396;-85
2022/04/18 01:39:49;;;;;;;3.30;2.00;;;;;;;;;;512093;28;1543;-86
2022/04/18 01:40:06;;;;;;;3.53;1.95;;;;;;;;;;513149;28;1480;-84
2022/04/18 01:40:21;;;;;;;3.22;1.90;;;;;;;;;;514192;28;1403;-86
2022/04/18 01:40:37;;;;;;;2.83;1.85;;;;;;;;;;514294;28;1717;-85
2022/04/18 01:40:52;;;;;;;3.10;1.97;;;;;;;;;;512218;28;1656;-85
2022/04/18 01:41:07;;;;;;;3.17;1.80;;;;;;;;;;512510;28;1492;-85
2022/04/18 01:41:23;;;;;;;3.07;1.80;;;;;;;;;;510760;29;1982;-85
2022/04/18 01:41:38;;;;;;;2.80;1.80;;;;;;;;;;508575;29;1759;-84
2022/04/18 01:41:54;;;;;;;2.40;1.73;;;;;;;;;;509353;29;1474;-84
2022/04/18 01:42:09;;;;;;;2.43;1.90;;;;;;;;;;510460;29;1553;-85
2022/04/18 01:42:24;;;;;;;2.55;1.92;;;;;;;;;;510918;29;1497;-86
2022/04/18 01:42:40;;;;;;;2.63;1.80;;;;;;;;;;510702;29;1447;-86
2022/04/18 01:42:55;;;;;;;2.97;1.77;;;;;;;;;;511000;29;1509;-86
2022/04/18 01:43:10;;;;;;;2.75;1.80;;;;;;;;;;511952;28;1578;-86